createdAt,value
2023-12-12T00:01:13.783Z,6.20
2023-12-12T00:03:44.057Z,6.20
2023-12-12T00:06:13.862Z,6.20
2023-12-12T00:08:45.925Z,6.30
2023-12-12T00:11:15.872Z,7.10
2023-12-12T00:13:46.444Z,6.40
2023-12-12T00:16:16.804Z,6.50
2023-12-12T00:18:48.459Z,6.60
2023-12-12T00:21:19.586Z,6.50
2023-12-12T00:23:49.519Z,6.50
2023-12-12T00:28:49.820Z,6.60
2023-12-12T00:31:22.465Z,6.50
2023-12-12T00:33:52.758Z,6.50
2023-12-12T00:36:24.075Z,6.70
2023-12-12T00:38:53.384Z,6.40
2023-12-12T00:41:34.047Z,8.00
2023-12-12T00:44:05.603Z,7.10
2023-12-12T00:46:37.810Z,5.90
2023-12-12T00:49:07.844Z,6.30
2023-12-12T00:51:38.152Z,6.20
2023-12-12T00:54:07.090Z,9.60
2023-12-12T00:56:36.046Z,7.20
2023-12-12T00:59:06.512Z,6.10
2023-12-12T01:01:38.467Z,6.30
2023-12-12T01:04:08.998Z,6.20
2023-12-12T01:06:37.637Z,6.90
2023-12-12T01:09:07.553Z,6.30
2023-12-12T01:11:37.605Z,6.20
2023-12-12T01:14:06.182Z,6.00
2023-12-12T01:16:34.826Z,6.20
2023-12-12T01:19:07.402Z,6.10
2023-12-12T01:21:37.609Z,7.10
2023-12-12T01:24:08.192Z,8.50
2023-12-12T01:26:38.728Z,6.40
2023-12-12T01:29:09.771Z,6.20
2023-12-12T01:31:41.935Z,7.30
2023-12-12T01:34:14.377Z,6.10
2023-12-12T01:36:46.485Z,6.00
2023-12-12T01:39:16.905Z,6.40
2023-12-12T01:41:48.685Z,7.70
2023-12-12T01:44:18.913Z,6.40
2023-12-12T01:46:50.792Z,6.10
2023-12-12T01:49:23.193Z,6.30
2023-12-12T01:51:54.059Z,6.20
2023-12-12T01:54:23.707Z,6.30
2023-12-12T01:56:57.556Z,6.90
2023-12-12T01:59:28.666Z,7.00
2023-12-12T02:01:58.139Z,6.40
2023-12-12T02:04:28.612Z,6.30
2023-12-12T02:07:01.318Z,6.70
2023-12-12T02:09:32.154Z,6.50
2023-12-12T02:12:03.606Z,8.00
2023-12-12T02:14:35.120Z,6.30
2023-12-12T02:17:05.867Z,6.30
2023-12-12T02:19:37.294Z,6.00
2023-12-12T02:22:09.847Z,6.50
2023-12-12T02:24:40.368Z,6.30
2023-12-12T02:27:11.072Z,6.30
2023-12-12T02:29:42.624Z,6.30
2023-12-12T02:32:13.357Z,6.40
2023-12-12T02:34:45.922Z,6.30
2023-12-12T02:37:19.147Z,6.30
2023-12-12T02:39:49.053Z,6.40
2023-12-12T02:42:26.235Z,6.40
2023-12-12T02:44:58.081Z,6.50
2023-12-12T02:47:32.344Z,6.50
2023-12-12T02:50:01.157Z,6.40
2023-12-12T02:52:34.789Z,6.50
2023-12-12T02:55:04.996Z,6.50
2023-12-12T02:57:35.177Z,6.50
2023-12-12T03:00:07.896Z,6.40
2023-12-12T03:02:41.788Z,6.50
2023-12-12T03:05:11.518Z,6.30
2023-12-12T03:07:41.788Z,6.60
2023-12-12T03:10:13.523Z,6.40
2023-12-12T03:12:45.775Z,5.70
2023-12-12T03:15:16.392Z,6.20
2023-12-12T03:17:49.782Z,6.60
2023-12-12T03:20:25.110Z,6.70
2023-12-12T03:22:57.066Z,8.50
2023-12-12T03:25:31.677Z,6.40
2023-12-12T03:28:01.645Z,6.50
2023-12-12T03:30:32.586Z,6.50
2023-12-12T03:33:04.630Z,7.00
2023-12-12T03:35:40.157Z,6.90
2023-12-12T03:38:15.935Z,6.40
2023-12-12T03:40:46.323Z,6.40
2023-12-12T03:43:16.763Z,6.70
2023-12-12T03:45:49.699Z,6.40
2023-12-12T03:48:22.104Z,6.70
2023-12-12T03:50:55.120Z,6.50
2023-12-12T03:53:30.184Z,6.40
2023-12-12T03:56:00.992Z,6.60
2023-12-12T03:58:34.860Z,6.50
2023-12-12T04:01:11.665Z,6.80
2023-12-12T04:03:44.726Z,6.50
2023-12-12T04:06:16.527Z,6.40
2023-12-12T04:08:53.440Z,6.40
2023-12-12T04:13:54.320Z,6.10
2023-12-12T04:16:26.516Z,8.20
2023-12-12T04:18:56.975Z,7.00
2023-12-12T04:21:27.234Z,6.30
2023-12-12T04:23:59.250Z,6.40
2023-12-12T04:26:33.919Z,6.40
2023-12-12T04:29:07.266Z,6.40
2023-12-12T04:31:37.262Z,6.40
2023-12-12T04:34:10.648Z,5.90
2023-12-12T04:36:42.496Z,6.60
2023-12-12T04:39:20.559Z,6.50
2023-12-12T04:41:49.785Z,7.90
2023-12-12T04:44:23.571Z,6.20
2023-12-12T04:46:51.998Z,5.90
2023-12-12T04:49:23.676Z,6.50
2023-12-12T04:51:52.235Z,7.30
2023-12-12T04:54:26.097Z,6.10
2023-12-12T04:56:55.149Z,6.40
2023-12-12T04:59:28.518Z,6.10
2023-12-12T05:01:59.793Z,6.00
2023-12-12T05:04:34.321Z,6.40
2023-12-12T05:07:05.694Z,8.10
2023-12-12T05:09:38.409Z,7.80
2023-12-12T05:12:14.472Z,6.40
2023-12-12T05:14:44.315Z,6.50
2023-12-12T05:17:14.600Z,6.30
2023-12-12T05:19:45.230Z,5.30
2023-12-12T05:22:16.077Z,6.40
2023-12-12T05:24:52.202Z,6.50
2023-12-12T05:27:23.198Z,6.00
2023-12-12T05:29:54.336Z,6.30
2023-12-12T05:32:27.736Z,6.50
2023-12-12T05:34:58.447Z,9.30
2023-12-12T05:37:30.779Z,6.40
2023-12-12T05:40:03.084Z,5.20
2023-12-12T05:42:34.573Z,6.30
2023-12-12T05:45:06.628Z,6.50
2023-12-12T05:47:38.073Z,6.50
2023-12-12T05:50:09.553Z,6.30
2023-12-12T05:52:42.150Z,6.70
2023-12-12T05:55:17.390Z,6.50
2023-12-12T05:57:46.507Z,5.90
2023-12-12T06:00:19.190Z,7.00
2023-12-12T06:05:23.405Z,6.40
2023-12-12T06:07:55.326Z,6.60
2023-12-12T06:10:27.468Z,6.30
2023-12-12T06:12:58.133Z,6.20
2023-12-12T06:15:30.124Z,8.80
2023-12-12T06:20:35.158Z,6.40
2023-12-12T06:23:06.036Z,6.40
2023-12-12T06:25:39.515Z,6.50
2023-12-12T06:28:09.625Z,6.70
2023-12-12T06:30:44.040Z,6.00
2023-12-12T06:33:14.259Z,6.00
2023-12-12T06:35:45.854Z,5.90
2023-12-12T06:38:15.486Z,5.90
2023-12-12T06:40:47.330Z,7.20
2023-12-12T06:43:18.473Z,6.00
2023-12-12T06:45:48.162Z,5.60
2023-12-12T06:48:19.013Z,5.50
2023-12-12T06:50:49.926Z,5.70
2023-12-12T06:53:20.421Z,5.50
2023-12-12T06:55:55.556Z,5.60
2023-12-12T06:58:26.086Z,5.50
2023-12-12T07:00:56.850Z,5.50
2023-12-12T07:03:34.022Z,5.60
2023-12-12T07:06:05.206Z,5.80
2023-12-12T07:08:34.364Z,5.70
2023-12-12T07:11:05.740Z,5.70
2023-12-12T07:13:35.853Z,5.70
2023-12-12T07:16:11.373Z,5.70
2023-12-12T07:18:41.844Z,5.80
2023-12-12T07:21:11.058Z,7.70
2023-12-12T07:23:41.654Z,5.70
2023-12-12T07:26:14.514Z,8.40
2023-12-12T07:28:46.798Z,5.60
2023-12-12T07:31:17.764Z,5.60
2023-12-12T07:33:49.121Z,5.60
2023-12-12T07:36:17.896Z,5.60
2023-12-12T07:38:47.569Z,7.00
2023-12-12T07:41:19.613Z,6.90
2023-12-12T07:43:50.355Z,5.30
2023-12-12T07:46:20.332Z,6.30
2023-12-12T07:51:20.368Z,5.50
2023-12-12T07:53:51.719Z,5.30
2023-12-12T07:56:23.588Z,5.10
2023-12-12T07:58:53.570Z,5.10
2023-12-12T08:01:24.582Z,7.90
2023-12-12T08:03:54.534Z,5.20
2023-12-12T08:06:25.041Z,5.00
2023-12-12T08:08:55.057Z,6.20
2023-12-12T08:11:31.842Z,5.60
2023-12-12T08:14:02.637Z,8.20
2023-12-12T08:16:34.687Z,5.70
2023-12-12T08:19:06.112Z,7.10
2023-12-12T08:21:37.024Z,5.90
2023-12-12T08:24:09.098Z,5.80
2023-12-12T08:26:45.589Z,6.20
2023-12-12T08:29:18.162Z,6.30
2023-12-12T08:31:49.014Z,6.20
2023-12-12T08:34:17.997Z,6.50
2023-12-12T08:36:48.006Z,6.50
2023-12-12T08:39:20.595Z,9.80
2023-12-12T08:41:53.358Z,6.70
2023-12-12T08:44:24.778Z,7.90
2023-12-12T08:46:53.564Z,6.60
2023-12-12T08:49:23.172Z,6.80
2023-12-12T08:51:52.999Z,7.00
2023-12-12T08:54:25.961Z,6.10
2023-12-12T08:56:58.706Z,6.90
2023-12-12T09:01:57.758Z,7.70
2023-12-12T09:04:28.047Z,8.30
2023-12-12T09:07:01.274Z,8.80
2023-12-12T09:09:32.895Z,9.30
2023-12-12T09:12:07.382Z,11.80
2023-12-12T09:14:36.808Z,10.10
2023-12-12T09:17:11.369Z,13.40
2023-12-12T09:19:44.391Z,10.90
2023-12-12T09:22:15.062Z,11.30
2023-12-12T09:24:43.756Z,10.40
2023-12-12T09:27:14.258Z,10.00
2023-12-12T09:29:46.296Z,9.30
2023-12-12T09:32:16.746Z,9.40
2023-12-12T09:34:51.027Z,10.80
2023-12-12T09:37:23.849Z,8.80
2023-12-12T09:39:53.975Z,8.50
2023-12-12T09:42:26.704Z,8.50
2023-12-12T09:45:03.678Z,11.00
2023-12-12T09:47:36.897Z,8.50
2023-12-12T09:50:12.914Z,8.60
2023-12-12T09:52:46.458Z,8.90
2023-12-12T09:55:21.386Z,8.80
2023-12-12T09:57:57.505Z,9.10
2023-12-12T10:00:29.548Z,10.90
2023-12-12T10:03:06.379Z,9.00
2023-12-12T10:05:39.242Z,8.50
2023-12-12T10:08:14.595Z,8.50
2023-12-12T10:10:47.165Z,8.50
2023-12-12T10:13:18.736Z,9.60
2023-12-12T10:15:49.170Z,8.60
2023-12-12T10:18:19.517Z,8.20
2023-12-12T10:20:50.929Z,8.30
2023-12-12T10:23:21.181Z,8.10
2023-12-12T10:25:54.448Z,7.90
2023-12-12T10:28:27.590Z,8.40
2023-12-12T10:31:00.293Z,8.20
2023-12-12T10:33:29.786Z,8.00
2023-12-12T10:36:04.769Z,9.40
2023-12-12T10:38:36.894Z,8.30
2023-12-12T10:41:18.479Z,8.20
2023-12-12T10:43:53.794Z,8.40
2023-12-12T10:46:26.020Z,8.90
2023-12-12T10:49:00.386Z,8.70
2023-12-12T10:51:30.432Z,8.90
2023-12-12T10:54:01.988Z,8.50
2023-12-12T10:56:36.950Z,9.90
2023-12-12T10:59:56.026Z,9.10
2023-12-12T11:02:04.733Z,9.10
2023-12-12T11:04:34.654Z,8.90
2023-12-12T11:07:06.603Z,9.10
2023-12-12T11:09:36.995Z,9.00
2023-12-12T11:12:09.093Z,9.00
2023-12-12T11:14:41.777Z,9.00
2023-12-12T11:17:14.040Z,10.90
2023-12-12T11:19:43.210Z,9.50
2023-12-12T11:22:15.439Z,9.20
2023-12-12T11:25:10.912Z,9.70
2023-12-12T11:27:44.125Z,9.30
2023-12-12T11:30:17.745Z,9.40
2023-12-12T11:32:47.414Z,9.60
2023-12-12T11:35:33.027Z,10.30
2023-12-12T11:38:06.189Z,9.60
2023-12-12T11:40:42.101Z,9.70
2023-12-12T11:43:26.796Z,9.80
2023-12-12T11:46:00.217Z,10.30
2023-12-12T11:48:31.742Z,10.10
2023-12-12T11:53:43.665Z,10.40
2023-12-12T11:56:13.438Z,10.60
2023-12-12T11:58:48.903Z,10.60
2023-12-12T12:01:25.382Z,10.80
2023-12-12T12:03:55.442Z,10.70
2023-12-12T12:06:25.294Z,10.70
2023-12-12T12:08:56.831Z,10.90
2023-12-12T12:11:26.784Z,8.90
2023-12-12T12:13:55.455Z,12.30
2023-12-12T12:16:29.183Z,12.50
2023-12-12T12:18:59.971Z,11.30
2023-12-12T12:21:30.913Z,12.00
2023-12-12T12:24:04.922Z,11.70
2023-12-12T12:26:39.260Z,12.20
2023-12-12T12:29:11.218Z,12.60
2023-12-12T12:31:43.770Z,13.20
2023-12-12T12:34:19.734Z,13.60
2023-12-12T12:36:51.906Z,16.80
2023-12-12T12:39:25.375Z,15.10
2023-12-12T12:41:59.597Z,14.90
2023-12-12T12:44:35.761Z,14.50
2023-12-12T12:47:06.112Z,14.80
2023-12-12T12:49:35.907Z,14.90
2023-12-12T12:52:08.526Z,14.30
2023-12-12T12:54:39.038Z,15.50
2023-12-12T12:57:13.608Z,15.70
2023-12-12T12:59:44.035Z,15.40
2023-12-12T13:02:17.335Z,14.90
2023-12-12T13:04:48.870Z,14.40
2023-12-12T13:07:17.473Z,14.00
2023-12-12T13:09:48.818Z,13.60
2023-12-12T13:12:21.624Z,13.50
2023-12-12T13:14:50.911Z,13.70
2023-12-12T13:17:26.266Z,13.90
2023-12-12T13:19:58.070Z,15.10
2023-12-12T13:22:28.769Z,15.80
2023-12-12T13:24:59.058Z,16.30
2023-12-12T13:27:30.187Z,16.90
2023-12-12T13:30:08.814Z,17.20
2023-12-12T13:32:40.895Z,17.30
2023-12-12T13:35:21.580Z,17.70
2023-12-12T13:38:00.419Z,18.00
2023-12-12T13:40:31.488Z,18.60
2023-12-12T13:43:00.810Z,18.00
2023-12-12T13:45:31.554Z,16.90
2023-12-12T13:48:04.247Z,15.80
2023-12-12T13:50:34.736Z,14.80
2023-12-12T13:53:06.529Z,14.30
2023-12-12T13:55:36.008Z,13.20
2023-12-12T13:58:07.838Z,12.70
2023-12-12T14:00:38.301Z,12.30
2023-12-12T14:03:08.751Z,11.60
2023-12-12T14:05:40.771Z,11.20
2023-12-12T14:08:12.134Z,11.20
2023-12-12T14:10:43.694Z,10.70
2023-12-12T14:13:16.414Z,10.40
2023-12-12T14:15:46.215Z,10.40
2023-12-12T14:18:20.534Z,10.10
2023-12-12T14:20:52.098Z,10.00
2023-12-12T14:23:21.146Z,9.80
2023-12-12T14:25:51.751Z,9.80
2023-12-12T14:28:25.198Z,9.50
2023-12-12T14:30:55.768Z,9.00
2023-12-12T14:33:30.946Z,9.50
2023-12-12T14:38:34.345Z,9.30
2023-12-12T14:41:04.671Z,9.20
2023-12-12T14:43:37.065Z,9.00
2023-12-12T14:46:07.828Z,11.80
2023-12-12T14:48:38.240Z,9.00
2023-12-12T14:51:09.834Z,8.50
2023-12-12T14:53:39.166Z,8.90
2023-12-12T14:56:13.725Z,8.70
2023-12-12T14:58:44.256Z,8.80
2023-12-12T15:01:17.453Z,10.10
2023-12-12T15:03:49.786Z,8.60
2023-12-12T15:06:20.834Z,8.60
2023-12-12T15:08:52.971Z,8.60
2023-12-12T15:11:21.720Z,8.60
2023-12-12T15:13:51.070Z,8.60
2023-12-12T15:16:21.472Z,8.10
2023-12-12T15:18:54.135Z,8.30
2023-12-12T15:21:26.800Z,8.40
2023-12-12T15:23:56.330Z,8.30
2023-12-12T15:26:25.797Z,8.30
2023-12-12T15:29:01.962Z,8.40
2023-12-12T15:31:30.964Z,9.60
2023-12-12T15:34:06.503Z,8.50
2023-12-12T15:36:34.905Z,8.30
2023-12-12T15:39:03.899Z,8.70
2023-12-12T15:41:34.534Z,7.90
2023-12-12T15:44:04.984Z,8.30
2023-12-12T15:46:37.945Z,10.20
2023-12-12T15:49:11.117Z,8.10
2023-12-12T15:51:42.406Z,8.20
2023-12-12T15:54:13.813Z,8.20
2023-12-12T15:56:44.077Z,8.00
2023-12-12T15:59:13.925Z,8.20
2023-12-12T16:01:44.021Z,8.00
2023-12-12T16:04:14.446Z,8.10
2023-12-12T16:06:44.351Z,8.00
2023-12-12T16:09:18.678Z,8.00
2023-12-12T16:11:50.983Z,8.10
2023-12-12T16:14:21.681Z,7.90
2023-12-12T16:16:55.785Z,9.40
2023-12-12T16:19:33.258Z,8.10
2023-12-12T16:22:05.275Z,8.10
2023-12-12T16:24:36.901Z,7.90
2023-12-12T16:27:11.043Z,8.00
2023-12-12T16:29:42.413Z,8.20
2023-12-12T16:32:12.450Z,8.30
2023-12-12T16:34:43.570Z,8.10
2023-12-12T16:37:12.307Z,8.40
2023-12-12T16:39:41.649Z,8.20
2023-12-12T16:42:16.777Z,8.20
2023-12-12T16:44:47.987Z,8.20
2023-12-12T16:47:17.849Z,8.00
2023-12-12T16:49:49.881Z,8.00
2023-12-12T16:52:20.514Z,8.70
2023-12-12T16:54:53.359Z,7.90
2023-12-12T16:57:24.166Z,7.70
2023-12-12T16:59:55.662Z,7.60
2023-12-12T17:02:25.525Z,9.60
2023-12-12T17:04:58.795Z,7.40
2023-12-12T17:07:29.336Z,9.60
2023-12-12T17:10:07.710Z,7.60
2023-12-12T17:12:42.055Z,7.90
2023-12-12T17:15:14.286Z,8.60
2023-12-12T17:17:46.041Z,7.70
2023-12-12T17:22:48.071Z,7.70
2023-12-12T17:25:18.690Z,7.70
2023-12-12T17:30:23.210Z,7.70
2023-12-12T17:32:53.714Z,7.60
2023-12-12T17:35:32.355Z,7.60
2023-12-12T17:38:06.452Z,7.50
2023-12-12T17:40:37.046Z,7.50
2023-12-12T17:43:07.089Z,7.60
2023-12-12T17:45:36.611Z,7.50
2023-12-12T17:48:08.592Z,7.70
2023-12-12T17:50:39.796Z,7.60
2023-12-12T17:53:11.715Z,8.20
2023-12-12T17:55:40.842Z,7.50
2023-12-12T17:58:11.995Z,7.60
2023-12-12T18:00:41.908Z,8.30
2023-12-12T18:03:12.418Z,7.60
2023-12-12T18:05:48.499Z,7.40
2023-12-12T18:08:24.110Z,7.50
2023-12-12T18:13:25.428Z,6.80
2023-12-12T18:15:56.291Z,7.00
2023-12-12T18:18:26.537Z,7.00
2023-12-12T18:20:59.448Z,9.00
2023-12-12T18:23:27.870Z,7.20
2023-12-12T18:26:01.146Z,7.20
2023-12-12T18:28:32.622Z,6.90
2023-12-12T18:31:04.485Z,8.20
2023-12-12T18:33:37.617Z,7.20
2023-12-12T18:36:14.728Z,7.10
2023-12-12T18:38:46.613Z,7.10
2023-12-12T18:41:18.291Z,7.00
2023-12-12T18:43:48.181Z,7.50
2023-12-12T18:46:17.470Z,7.00
2023-12-12T18:51:22.481Z,7.20
2023-12-12T18:53:52.860Z,7.40
2023-12-12T18:56:26.552Z,7.20
2023-12-12T18:58:55.165Z,7.30
2023-12-12T19:01:29.707Z,7.20
2023-12-12T19:04:01.752Z,7.30
2023-12-12T19:06:35.469Z,9.50
2023-12-12T19:09:05.864Z,7.30
2023-12-12T19:11:40.423Z,7.30
2023-12-12T19:14:14.452Z,7.20
2023-12-12T19:16:44.647Z,7.20
2023-12-12T19:19:13.375Z,8.50
2023-12-12T19:21:48.058Z,7.40
2023-12-12T19:24:16.762Z,7.60
2023-12-12T19:26:48.429Z,7.10
2023-12-12T19:29:20.573Z,7.40
2023-12-12T19:31:54.085Z,7.40
2023-12-12T19:34:27.844Z,7.50
2023-12-12T19:36:59.525Z,7.50
2023-12-12T19:39:31.005Z,9.60
2023-12-12T19:42:02.022Z,7.70
2023-12-12T19:44:36.799Z,7.50
2023-12-12T19:47:08.691Z,8.90
2023-12-12T19:49:44.439Z,7.50
2023-12-12T19:52:16.188Z,7.40
2023-12-12T19:54:49.639Z,7.50
2023-12-12T19:57:18.399Z,7.70
2023-12-12T19:59:51.338Z,7.40
2023-12-12T20:02:20.965Z,7.50
2023-12-12T20:07:25.592Z,7.50
2023-12-12T20:09:56.587Z,7.50
2023-12-12T20:14:58.638Z,7.60
2023-12-12T20:17:28.932Z,7.50
2023-12-12T20:20:04.383Z,7.40
2023-12-12T20:22:39.270Z,8.90
2023-12-12T20:25:10.856Z,7.40
2023-12-12T20:27:46.606Z,7.50
2023-12-12T20:30:22.046Z,7.60
2023-12-12T20:32:51.593Z,7.40
2023-12-12T20:37:51.563Z,7.50
2023-12-12T20:40:22.687Z,8.50
2023-12-12T20:42:52.332Z,7.60
2023-12-12T20:45:22.275Z,7.60
2023-12-12T20:47:54.981Z,7.90
2023-12-12T20:50:24.870Z,7.50
2023-12-12T20:52:56.595Z,7.60
2023-12-12T20:55:25.506Z,7.80
2023-12-12T20:57:57.983Z,7.70
2023-12-12T21:00:30.784Z,7.70
2023-12-12T21:03:01.017Z,7.20
2023-12-12T21:05:32.088Z,7.60
2023-12-12T21:08:05.403Z,7.70
2023-12-12T21:10:34.907Z,8.70
2023-12-12T21:13:04.672Z,7.60
2023-12-12T21:15:33.491Z,7.60
2023-12-12T21:18:04.923Z,7.60
2023-12-12T21:20:35.052Z,7.70
2023-12-12T21:23:08.390Z,7.50
2023-12-12T21:25:39.427Z,7.60
2023-12-12T21:28:10.362Z,7.50
2023-12-12T21:30:39.394Z,7.70
2023-12-12T21:35:40.550Z,7.10
2023-12-12T21:38:13.473Z,7.60
2023-12-12T21:40:47.457Z,7.10
2023-12-12T21:43:17.840Z,8.20
2023-12-12T21:45:51.207Z,7.20
2023-12-12T21:48:21.854Z,7.90
2023-12-12T21:50:50.686Z,7.40
2023-12-12T21:53:21.864Z,7.30
2023-12-12T21:55:53.228Z,7.20
2023-12-12T21:58:24.176Z,7.30
2023-12-12T22:00:54.241Z,7.20
2023-12-12T22:03:23.355Z,7.30
2023-12-12T22:05:52.432Z,10.10
2023-12-12T22:08:26.146Z,7.30
2023-12-12T22:10:57.239Z,7.30
2023-12-12T22:13:28.581Z,7.40
2023-12-12T22:15:57.137Z,7.50
2023-12-12T22:18:27.358Z,8.10
2023-12-12T22:20:56.922Z,7.50
2023-12-12T22:23:27.570Z,7.50
2023-12-12T22:25:57.786Z,7.50
2023-12-12T22:28:28.061Z,7.40
2023-12-12T22:30:58.053Z,7.40
2023-12-12T22:33:28.796Z,7.40
2023-12-12T22:35:58.366Z,7.30
2023-12-12T22:38:30.531Z,9.20
2023-12-12T22:41:00.079Z,7.10
2023-12-12T22:43:32.189Z,7.40
2023-12-12T22:46:01.203Z,7.50
2023-12-12T22:48:30.338Z,7.50
2023-12-12T22:51:00.401Z,9.10
2023-12-12T22:53:33.744Z,7.30
2023-12-12T22:56:03.413Z,7.20
2023-12-12T22:58:34.024Z,8.70
2023-12-12T23:01:06.884Z,7.60
2023-12-12T23:03:36.763Z,7.60
2023-12-12T23:06:08.413Z,7.40
2023-12-12T23:08:39.561Z,7.50
2023-12-12T23:11:11.731Z,7.40
2023-12-12T23:13:43.749Z,7.70
2023-12-12T23:16:13.010Z,6.80
2023-12-12T23:18:43.715Z,9.20
2023-12-12T23:21:12.901Z,7.20
2023-12-12T23:23:44.133Z,8.70
2023-12-12T23:26:13.777Z,7.30
2023-12-12T23:28:45.412Z,7.20
2023-12-12T23:31:15.687Z,8.80
2023-12-12T23:33:47.647Z,7.20
2023-12-12T23:36:19.863Z,7.20
2023-12-12T23:38:51.704Z,7.20
2023-12-12T23:41:22.748Z,7.20
2023-12-12T23:43:54.473Z,7.20
2023-12-12T23:46:26.551Z,6.90
2023-12-12T23:48:57.259Z,7.00
2023-12-12T23:51:28.148Z,7.00
2023-12-12T23:53:59.903Z,7.40
2023-12-12T23:56:29.976Z,6.70
2023-12-12T23:58:58.898Z,6.40
